sensor_id;sensor_type;location;lat;lon;timestamp;P1;durP1;ratioP1;P2;durP2;ratioP2
70675;SDS011;59069;52.242;20.900;2023-06-26T00:01:17;12.70;;;5.77;;
70675;SDS011;59069;52.242;20.900;2023-06-26T00:03:45;11.65;;;5.97;;
70675;SDS011;59069;52.242;20.900;2023-06-26T00:06:11;12.57;;;6.50;;
70675;SDS011;59069;52.242;20.900;2023-06-26T00:08:36;12.03;;;6.40;;
70675;SDS011;59069;52.242;20.900;2023-06-26T00:11:02;11.97;;;6.57;;
70675;SDS011;59069;52.242;20.900;2023-06-26T00:13:27;13.00;;;7.13;;
70675;SDS011;59069;52.242;20.900;2023-06-26T00:15:53;12.25;;;6.65;;
70675;SDS011;59069;52.242;20.900;2023-06-26T00:18:18;13.57;;;6.40;;
70675;SDS011;59069;52.242;20.900;2023-06-26T00:20:44;12.33;;;6.20;;
70675;SDS011;59069;52.242;20.900;2023-06-26T00:23:10;11.77;;;6.20;;
70675;SDS011;59069;52.242;20.900;2023-06-26T00:25:36;13.48;;;6.53;;
70675;SDS011;59069;52.242;20.900;2023-06-26T00:28:02;12.17;;;5.90;;
70675;SDS011;59069;52.242;20.900;2023-06-26T00:30:27;12.23;;;6.33;;
70675;SDS011;59069;52.242;20.900;2023-06-26T00:32:52;11.57;;;5.65;;
70675;SDS011;59069;52.242;20.900;2023-06-26T00:35:18;12.10;;;6.17;;
70675;SDS011;59069;52.242;20.900;2023-06-26T00:37:43;12.37;;;6.43;;
70675;SDS011;59069;52.242;20.900;2023-06-26T00:40:09;12.03;;;6.10;;
70675;SDS011;59069;52.242;20.900;2023-06-26T00:42:34;14.43;;;6.90;;
70675;SDS011;59069;52.242;20.900;2023-06-26T00:45:00;12.67;;;6.70;;
70675;SDS011;59069;52.242;20.900;2023-06-26T00:47:26;12.90;;;5.97;;
70675;SDS011;59069;52.242;20.900;2023-06-26T00:49:52;13.32;;;6.10;;
70675;SDS011;59069;52.242;20.900;2023-06-26T00:52:19;13.80;;;6.80;;
70675;SDS011;59069;52.242;20.900;2023-06-26T00:54:45;12.93;;;6.40;;
70675;SDS011;59069;52.242;20.900;2023-06-26T00:57:11;12.48;;;6.05;;
70675;SDS011;59069;52.242;20.900;2023-06-26T00:59:36;12.70;;;6.50;;
70675;SDS011;59069;52.242;20.900;2023-06-26T01:02:03;10.48;;;5.78;;
70675;SDS011;59069;52.242;20.900;2023-06-26T01:04:28;13.07;;;6.47;;
70675;SDS011;59069;52.242;20.900;2023-06-26T01:06:57;12.73;;;6.13;;
70675;SDS011;59069;52.242;20.900;2023-06-26T01:09:24;14.80;;;6.00;;
70675;SDS011;59069;52.242;20.900;2023-06-26T01:11:50;12.43;;;5.90;;
70675;SDS011;59069;52.242;20.900;2023-06-26T01:14:15;13.07;;;6.87;;
70675;SDS011;59069;52.242;20.900;2023-06-26T01:16:41;12.63;;;6.50;;
70675;SDS011;59069;52.242;20.900;2023-06-26T01:19:13;12.90;;;6.73;;
70675;SDS011;59069;52.242;20.900;2023-06-26T01:21:49;13.50;;;6.45;;
70675;SDS011;59069;52.242;20.900;2023-06-26T01:24:17;13.25;;;6.57;;
70675;SDS011;59069;52.242;20.900;2023-06-26T01:26:46;14.75;;;6.90;;
70675;SDS011;59069;52.242;20.900;2023-06-26T01:29:14;14.80;;;6.70;;
70675;SDS011;59069;52.242;20.900;2023-06-26T01:31:42;13.53;;;6.90;;
70675;SDS011;59069;52.242;20.900;2023-06-26T01:34:08;13.27;;;6.70;;
70675;SDS011;59069;52.242;20.900;2023-06-26T01:36:34;16.70;;;7.40;;
70675;SDS011;59069;52.242;20.900;2023-06-26T01:39:00;16.67;;;6.43;;
70675;SDS011;59069;52.242;20.900;2023-06-26T01:41:25;16.07;;;6.67;;
70675;SDS011;59069;52.242;20.900;2023-06-26T01:49:16;18.77;;;7.30;;
70675;SDS011;59069;52.242;20.900;2023-06-26T01:51:58;18.63;;;6.82;;
70675;SDS011;59069;52.242;20.900;2023-06-26T01:54:39;16.90;;;6.47;;
70675;SDS011;59069;52.242;20.900;2023-06-26T01:57:12;15.57;;;6.47;;
70675;SDS011;59069;52.242;20.900;2023-06-26T01:59:38;15.02;;;6.55;;
70675;SDS011;59069;52.242;20.900;2023-06-26T02:02:07;16.80;;;7.03;;
70675;SDS011;59069;52.242;20.900;2023-06-26T02:04:33;15.80;;;7.13;;
70675;SDS011;59069;52.242;20.900;2023-06-26T02:06:58;21.00;;;7.30;;
70675;SDS011;59069;52.242;20.900;2023-06-26T02:09:24;17.67;;;6.60;;
70675;SDS011;59069;52.242;20.900;2023-06-26T02:11:49;19.27;;;7.33;;
70675;SDS011;59069;52.242;20.900;2023-06-26T02:14:14;17.50;;;7.37;;
70675;SDS011;59069;52.242;20.900;2023-06-26T02:16:40;17.20;;;6.93;;
70675;SDS011;59069;52.242;20.900;2023-06-26T02:19:05;20.03;;;6.87;;
70675;SDS011;59069;52.242;20.900;2023-06-26T02:21:30;15.67;;;6.00;;
70675;SDS011;59069;52.242;20.900;2023-06-26T02:23:56;13.87;;;6.50;;
70675;SDS011;59069;52.242;20.900;2023-06-26T02:26:21;18.20;;;6.67;;
70675;SDS011;59069;52.242;20.900;2023-06-26T02:28:47;16.45;;;7.15;;
70675;SDS011;59069;52.242;20.900;2023-06-26T02:31:13;18.50;;;7.13;;
70675;SDS011;59069;52.242;20.900;2023-06-26T02:33:38;15.03;;;6.70;;
70675;SDS011;59069;52.242;20.900;2023-06-26T02:36:04;13.82;;;6.63;;
70675;SDS011;59069;52.242;20.900;2023-06-26T02:38:29;15.30;;;7.33;;
70675;SDS011;59069;52.242;20.900;2023-06-26T02:40:55;13.82;;;6.35;;
70675;SDS011;59069;52.242;20.900;2023-06-26T02:43:20;14.80;;;6.57;;
70675;SDS011;59069;52.242;20.900;2023-06-26T02:45:45;16.03;;;6.60;;
70675;SDS011;59069;52.242;20.900;2023-06-26T02:48:11;16.73;;;6.33;;
70675;SDS011;59069;52.242;20.900;2023-06-26T02:50:36;17.03;;;6.30;;
70675;SDS011;59069;52.242;20.900;2023-06-26T02:53:01;14.30;;;6.53;;
70675;SDS011;59069;52.242;20.900;2023-06-26T02:55:27;17.25;;;7.03;;
70675;SDS011;59069;52.242;20.900;2023-06-26T02:57:52;13.37;;;6.60;;
70675;SDS011;59069;52.242;20.900;2023-06-26T03:00:18;13.80;;;6.93;;
70675;SDS011;59069;52.242;20.900;2023-06-26T03:02:43;14.27;;;6.70;;
70675;SDS011;59069;52.242;20.900;2023-06-26T03:05:09;13.47;;;6.67;;
70675;SDS011;59069;52.242;20.900;2023-06-26T03:07:34;16.93;;;7.13;;
70675;SDS011;59069;52.242;20.900;2023-06-26T03:09:59;14.30;;;6.10;;
70675;SDS011;59069;52.242;20.900;2023-06-26T03:12:25;13.88;;;6.90;;
70675;SDS011;59069;52.242;20.900;2023-06-26T03:14:50;13.43;;;6.90;;
70675;SDS011;59069;52.242;20.900;2023-06-26T03:17:16;14.77;;;7.23;;
70675;SDS011;59069;52.242;20.900;2023-06-26T03:19:41;17.30;;;7.40;;
70675;SDS011;59069;52.242;20.900;2023-06-26T03:22:07;15.63;;;7.55;;
70675;SDS011;59069;52.242;20.900;2023-06-26T03:24:33;16.03;;;7.27;;
70675;SDS011;59069;52.242;20.900;2023-06-26T03:26:58;15.20;;;7.45;;
70675;SDS011;59069;52.242;20.900;2023-06-26T03:29:24;15.02;;;7.13;;
70675;SDS011;59069;52.242;20.900;2023-06-26T03:31:50;14.13;;;6.90;;
70675;SDS011;59069;52.242;20.900;2023-06-26T03:34:15;16.93;;;7.37;;
70675;SDS011;59069;52.242;20.900;2023-06-26T03:36:41;16.27;;;7.63;;
70675;SDS011;59069;52.242;20.900;2023-06-26T03:39:06;13.55;;;7.25;;
70675;SDS011;59069;52.242;20.900;2023-06-26T03:41:31;16.43;;;7.90;;
70675;SDS011;59069;52.242;20.900;2023-06-26T03:43:57;15.70;;;7.90;;
70675;SDS011;59069;52.242;20.900;2023-06-26T03:46:22;15.90;;;7.57;;
70675;SDS011;59069;52.242;20.900;2023-06-26T03:48:48;13.93;;;7.63;;
70675;SDS011;59069;52.242;20.900;2023-06-26T03:51:14;16.58;;;8.18;;
70675;SDS011;59069;52.242;20.900;2023-06-26T03:53:39;14.63;;;7.53;;
70675;SDS011;59069;52.242;20.900;2023-06-26T03:56:05;14.90;;;7.80;;
70675;SDS011;59069;52.242;20.900;2023-06-26T03:58:30;15.10;;;8.43;;
70675;SDS011;59069;52.242;20.900;2023-06-26T04:00:55;18.97;;;8.33;;
70675;SDS011;59069;52.242;20.900;2023-06-26T04:03:22;15.18;;;8.13;;
70675;SDS011;59069;52.242;20.900;2023-06-26T04:05:48;14.87;;;8.33;;
70675;SDS011;59069;52.242;20.900;2023-06-26T04:08:13;14.73;;;8.35;;
70675;SDS011;59069;52.242;20.900;2023-06-26T04:10:39;15.87;;;7.83;;
70675;SDS011;59069;52.242;20.900;2023-06-26T04:13:04;15.97;;;8.13;;
70675;SDS011;59069;52.242;20.900;2023-06-26T04:15:29;19.73;;;8.77;;
70675;SDS011;59069;52.242;20.900;2023-06-26T04:17:55;19.27;;;8.67;;
70675;SDS011;59069;52.242;20.900;2023-06-26T04:20:20;15.23;;;8.15;;
70675;SDS011;59069;52.242;20.900;2023-06-26T04:22:45;14.40;;;8.20;;
70675;SDS011;59069;52.242;20.900;2023-06-26T04:25:11;16.83;;;8.63;;
70675;SDS011;59069;52.242;20.900;2023-06-26T04:27:39;17.45;;;8.70;;
70675;SDS011;59069;52.242;20.900;2023-06-26T04:30:05;16.60;;;8.40;;
70675;SDS011;59069;52.242;20.900;2023-06-26T04:32:30;18.70;;;8.90;;
70675;SDS011;59069;52.242;20.900;2023-06-26T04:34:56;16.53;;;8.47;;
70675;SDS011;59069;52.242;20.900;2023-06-26T04:37:22;15.80;;;8.27;;
70675;SDS011;59069;52.242;20.900;2023-06-26T04:39:47;14.85;;;8.38;;
70675;SDS011;59069;52.242;20.900;2023-06-26T04:42:13;15.03;;;8.67;;
70675;SDS011;59069;52.242;20.900;2023-06-26T04:44:38;15.73;;;8.90;;
70675;SDS011;59069;52.242;20.900;2023-06-26T04:47:05;13.93;;;8.13;;
70675;SDS011;59069;52.242;20.900;2023-06-26T04:49:31;15.02;;;8.52;;
70675;SDS011;59069;52.242;20.900;2023-06-26T04:51:57;17.37;;;8.77;;
70675;SDS011;59069;52.242;20.900;2023-06-26T04:54:25;17.73;;;9.18;;
70675;SDS011;59069;52.242;20.900;2023-06-26T04:56:50;16.67;;;9.00;;
70675;SDS011;59069;52.242;20.900;2023-06-26T04:59:16;15.50;;;8.47;;
70675;SDS011;59069;52.242;20.900;2023-06-26T05:01:41;15.40;;;8.47;;
70675;SDS011;59069;52.242;20.900;2023-06-26T05:04:07;16.73;;;8.53;;
70675;SDS011;59069;52.242;20.900;2023-06-26T05:06:33;15.47;;;7.60;;
70675;SDS011;59069;52.242;20.900;2023-06-26T05:08:58;15.97;;;8.03;;
70675;SDS011;59069;52.242;20.900;2023-06-26T05:11:24;17.17;;;8.30;;
70675;SDS011;59069;52.242;20.900;2023-06-26T05:13:50;15.07;;;7.67;;
70675;SDS011;59069;52.242;20.900;2023-06-26T05:16:15;15.70;;;8.30;;
70675;SDS011;59069;52.242;20.900;2023-06-26T05:18:41;15.57;;;8.10;;
70675;SDS011;59069;52.242;20.900;2023-06-26T05:21:06;14.43;;;7.87;;
70675;SDS011;59069;52.242;20.900;2023-06-26T05:23:32;16.63;;;7.72;;
70675;SDS011;59069;52.242;20.900;2023-06-26T05:25:59;18.50;;;8.30;;
70675;SDS011;59069;52.242;20.900;2023-06-26T05:28:25;13.90;;;7.68;;
70675;SDS011;59069;52.242;20.900;2023-06-26T05:30:52;14.55;;;7.50;;
70675;SDS011;59069;52.242;20.900;2023-06-26T05:33:18;19.25;;;8.60;;
70675;SDS011;59069;52.242;20.900;2023-06-26T05:35:46;14.98;;;7.72;;
70675;SDS011;59069;52.242;20.900;2023-06-26T05:38:13;18.53;;;8.27;;
70675;SDS011;59069;52.242;20.900;2023-06-26T05:40:39;15.57;;;8.32;;
70675;SDS011;59069;52.242;20.900;2023-06-26T05:43:05;13.85;;;7.65;;
70675;SDS011;59069;52.242;20.900;2023-06-26T05:45:32;17.63;;;7.95;;
70675;SDS011;59069;52.242;20.900;2023-06-26T05:47:57;15.87;;;7.43;;
70675;SDS011;59069;52.242;20.900;2023-06-26T05:50:23;14.68;;;7.55;;
70675;SDS011;59069;52.242;20.900;2023-06-26T05:52:49;12.43;;;6.70;;
70675;SDS011;59069;52.242;20.900;2023-06-26T05:55:14;14.30;;;6.82;;
70675;SDS011;59069;52.242;20.900;2023-06-26T05:57:40;16.13;;;6.77;;
70675;SDS011;59069;52.242;20.900;2023-06-26T06:00:06;13.63;;;6.80;;
70675;SDS011;59069;52.242;20.900;2023-06-26T06:02:38;13.60;;;7.20;;
70675;SDS011;59069;52.242;20.900;2023-06-26T06:05:05;11.10;;;6.50;;
70675;SDS011;59069;52.242;20.900;2023-06-26T06:07:34;13.73;;;6.45;;
70675;SDS011;59069;52.242;20.900;2023-06-26T06:10:01;12.18;;;6.65;;
70675;SDS011;59069;52.242;20.900;2023-06-26T06:12:27;12.52;;;6.25;;
70675;SDS011;59069;52.242;20.900;2023-06-26T06:14:52;12.23;;;6.80;;
70675;SDS011;59069;52.242;20.900;2023-06-26T06:17:19;11.70;;;6.50;;
70675;SDS011;59069;52.242;20.900;2023-06-26T06:19:45;12.33;;;6.27;;
70675;SDS011;59069;52.242;20.900;2023-06-26T06:22:10;15.52;;;6.50;;
70675;SDS011;59069;52.242;20.900;2023-06-26T06:24:36;12.30;;;6.33;;
70675;SDS011;59069;52.242;20.900;2023-06-26T06:27:01;12.83;;;6.00;;
70675;SDS011;59069;52.242;20.900;2023-06-26T06:29:27;11.90;;;5.90;;
70675;SDS011;59069;52.242;20.900;2023-06-26T06:31:52;13.73;;;6.33;;
70675;SDS011;59069;52.242;20.900;2023-06-26T06:34:18;12.30;;;5.50;;
70675;SDS011;59069;52.242;20.900;2023-06-26T06:36:43;10.50;;;5.80;;
70675;SDS011;59069;52.242;20.900;2023-06-26T06:39:08;11.93;;;5.53;;
70675;SDS011;59069;52.242;20.900;2023-06-26T06:41:34;10.47;;;4.90;;
70675;SDS011;59069;52.242;20.900;2023-06-26T06:43:59;10.47;;;5.60;;
70675;SDS011;59069;52.242;20.900;2023-06-26T06:46:24;9.40;;;4.80;;
70675;SDS011;59069;52.242;20.900;2023-06-26T06:48:52;10.02;;;5.38;;
70675;SDS011;59069;52.242;20.900;2023-06-26T06:51:17;9.23;;;5.00;;
70675;SDS011;59069;52.242;20.900;2023-06-26T06:53:43;8.77;;;4.50;;
70675;SDS011;59069;52.242;20.900;2023-06-26T06:56:08;10.20;;;5.23;;
70675;SDS011;59069;52.242;20.900;2023-06-26T06:58:33;10.27;;;5.07;;
70675;SDS011;59069;52.242;20.900;2023-06-26T07:01:00;9.57;;;5.07;;
70675;SDS011;59069;52.242;20.900;2023-06-26T07:03:27;9.27;;;4.88;;
70675;SDS011;59069;52.242;20.900;2023-06-26T07:05:53;14.43;;;5.40;;
70675;SDS011;59069;52.242;20.900;2023-06-26T07:08:18;10.73;;;5.00;;
70675;SDS011;59069;52.242;20.900;2023-06-26T07:10:44;10.88;;;5.05;;
70675;SDS011;59069;52.242;20.900;2023-06-26T07:13:09;9.00;;;4.73;;
70675;SDS011;59069;52.242;20.900;2023-06-26T07:15:34;10.03;;;4.80;;
70675;SDS011;59069;52.242;20.900;2023-06-26T07:18:00;9.03;;;4.97;;
70675;SDS011;59069;52.242;20.900;2023-06-26T07:20:25;11.15;;;4.90;;
70675;SDS011;59069;52.242;20.900;2023-06-26T07:22:52;8.67;;;4.73;;
70675;SDS011;59069;52.242;20.900;2023-06-26T07:25:18;10.05;;;4.78;;
70675;SDS011;59069;52.242;20.900;2023-06-26T07:27:43;9.93;;;5.57;;
70675;SDS011;59069;52.242;20.900;2023-06-26T07:30:09;8.60;;;4.70;;
70675;SDS011;59069;52.242;20.900;2023-06-26T07:32:35;9.37;;;4.80;;
70675;SDS011;59069;52.242;20.900;2023-06-26T07:35:01;11.10;;;4.80;;
70675;SDS011;59069;52.242;20.900;2023-06-26T07:37:27;9.63;;;4.60;;
70675;SDS011;59069;52.242;20.900;2023-06-26T07:39:52;9.30;;;4.35;;
70675;SDS011;59069;52.242;20.900;2023-06-26T07:42:18;10.10;;;5.00;;
70675;SDS011;59069;52.242;20.900;2023-06-26T07:44:43;9.47;;;4.90;;
70675;SDS011;59069;52.242;20.900;2023-06-26T07:47:09;11.07;;;5.37;;
70675;SDS011;59069;52.242;20.900;2023-06-26T07:49:35;8.93;;;4.82;;
70675;SDS011;59069;52.242;20.900;2023-06-26T07:52:00;7.80;;;4.80;;
70675;SDS011;59069;52.242;20.900;2023-06-26T07:54:26;9.65;;;5.03;;
70675;SDS011;59069;52.242;20.900;2023-06-26T07:56:52;8.33;;;4.90;;
70675;SDS011;59069;52.242;20.900;2023-06-26T07:59:25;9.23;;;4.53;;
70675;SDS011;59069;52.242;20.900;2023-06-26T08:01:52;9.30;;;4.57;;
70675;SDS011;59069;52.242;20.900;2023-06-26T08:04:19;8.83;;;4.40;;
70675;SDS011;59069;52.242;20.900;2023-06-26T08:06:53;8.98;;;4.32;;
70675;SDS011;59069;52.242;20.900;2023-06-26T08:09:21;9.77;;;4.85;;
70675;SDS011;59069;52.242;20.900;2023-06-26T08:11:48;8.85;;;4.63;;
70675;SDS011;59069;52.242;20.900;2023-06-26T08:14:15;8.67;;;4.57;;
70675;SDS011;59069;52.242;20.900;2023-06-26T08:16:41;9.88;;;4.70;;
70675;SDS011;59069;52.242;20.900;2023-06-26T08:19:07;8.63;;;4.55;;
70675;SDS011;59069;52.242;20.900;2023-06-26T08:21:33;9.33;;;4.93;;
70675;SDS011;59069;52.242;20.900;2023-06-26T08:23:58;9.32;;;4.78;;
70675;SDS011;59069;52.242;20.900;2023-06-26T08:26:24;10.80;;;5.10;;
70675;SDS011;59069;52.242;20.900;2023-06-26T08:28:49;8.60;;;5.07;;
70675;SDS011;59069;52.242;20.900;2023-06-26T08:31:15;10.43;;;4.50;;
70675;SDS011;59069;52.242;20.900;2023-06-26T08:33:41;8.68;;;4.55;;
70675;SDS011;59069;52.242;20.900;2023-06-26T08:36:06;9.27;;;4.20;;
70675;SDS011;59069;52.242;20.900;2023-06-26T08:38:32;7.70;;;3.95;;
70675;SDS011;59069;52.242;20.900;2023-06-26T08:40:58;8.37;;;4.23;;
70675;SDS011;59069;52.242;20.900;2023-06-26T08:43:23;7.63;;;3.58;;
70675;SDS011;59069;52.242;20.900;2023-06-26T08:45:49;8.27;;;3.70;;
70675;SDS011;59069;52.242;20.900;2023-06-26T08:48:17;8.48;;;3.97;;
70675;SDS011;59069;52.242;20.900;2023-06-26T08:50:43;9.30;;;3.97;;
70675;SDS011;59069;52.242;20.900;2023-06-26T08:56:12;8.43;;;4.53;;
70675;SDS011;59069;52.242;20.900;2023-06-26T08:58:42;7.55;;;4.57;;
70675;SDS011;59069;52.242;20.900;2023-06-26T09:01:07;8.83;;;4.97;;
70675;SDS011;59069;52.242;20.900;2023-06-26T09:03:33;9.03;;;4.43;;
70675;SDS011;59069;52.242;20.900;2023-06-26T09:05:59;7.63;;;4.03;;
70675;SDS011;59069;52.242;20.900;2023-06-26T09:08:25;9.27;;;4.27;;
70675;SDS011;59069;52.242;20.900;2023-06-26T09:10:51;10.35;;;4.13;;
70675;SDS011;59069;52.242;20.900;2023-06-26T09:13:17;7.13;;;3.77;;
70675;SDS011;59069;52.242;20.900;2023-06-26T09:15:43;8.48;;;4.10;;
70675;SDS011;59069;52.242;20.900;2023-06-26T09:18:09;7.93;;;3.63;;
70675;SDS011;59069;52.242;20.900;2023-06-26T09:20:35;8.03;;;4.20;;
70675;SDS011;59069;52.242;20.900;2023-06-26T09:23:02;7.93;;;3.80;;
70675;SDS011;59069;52.242;20.900;2023-06-26T09:25:28;7.50;;;4.10;;
70675;SDS011;59069;52.242;20.900;2023-06-26T09:27:54;7.50;;;3.77;;
70675;SDS011;59069;52.242;20.900;2023-06-26T09:30:20;6.63;;;3.28;;
70675;SDS011;59069;52.242;20.900;2023-06-26T09:32:46;8.25;;;3.28;;
70675;SDS011;59069;52.242;20.900;2023-06-26T09:35:11;7.00;;;3.60;;
70675;SDS011;59069;52.242;20.900;2023-06-26T09:37:37;6.77;;;3.70;;
70675;SDS011;59069;52.242;20.900;2023-06-26T09:40:03;7.40;;;3.70;;
70675;SDS011;59069;52.242;20.900;2023-06-26T09:42:29;6.95;;;3.78;;
70675;SDS011;59069;52.242;20.900;2023-06-26T09:44:55;8.27;;;3.67;;
70675;SDS011;59069;52.242;20.900;2023-06-26T09:47:21;7.33;;;3.50;;
70675;SDS011;59069;52.242;20.900;2023-06-26T09:49:47;6.47;;;3.47;;
70675;SDS011;59069;52.242;20.900;2023-06-26T09:52:16;7.20;;;3.50;;
70675;SDS011;59069;52.242;20.900;2023-06-26T09:54:42;7.93;;;3.88;;
70675;SDS011;59069;52.242;20.900;2023-06-26T09:57:11;8.43;;;3.65;;
70675;SDS011;59069;52.242;20.900;2023-06-26T09:59:38;8.93;;;4.00;;
70675;SDS011;59069;52.242;20.900;2023-06-26T10:02:04;8.80;;;3.60;;
70675;SDS011;59069;52.242;20.900;2023-06-26T10:04:30;10.67;;;3.70;;
70675;SDS011;59069;52.242;20.900;2023-06-26T10:06:56;11.97;;;4.10;;
70675;SDS011;59069;52.242;20.900;2023-06-26T10:09:23;8.05;;;3.58;;
70675;SDS011;59069;52.242;20.900;2023-06-26T10:11:54;7.38;;;3.75;;
70675;SDS011;59069;52.242;20.900;2023-06-26T10:14:21;6.75;;;3.45;;
70675;SDS011;59069;52.242;20.900;2023-06-26T10:16:51;7.47;;;3.53;;
70675;SDS011;59069;52.242;20.900;2023-06-26T10:19:18;10.73;;;3.38;;
70675;SDS011;59069;52.242;20.900;2023-06-26T10:21:53;10.13;;;3.85;;
70675;SDS011;59069;52.242;20.900;2023-06-26T10:24:20;7.10;;;3.85;;
70675;SDS011;59069;52.242;20.900;2023-06-26T10:26:48;7.50;;;3.40;;
70675;SDS011;59069;52.242;20.900;2023-06-26T10:29:17;8.13;;;3.95;;
70675;SDS011;59069;52.242;20.900;2023-06-26T10:31:45;9.45;;;4.13;;
70675;SDS011;59069;52.242;20.900;2023-06-26T10:34:15;9.15;;;4.00;;
70675;SDS011;59069;52.242;20.900;2023-06-26T10:36:40;8.67;;;4.10;;
70675;SDS011;59069;52.242;20.900;2023-06-26T10:39:06;7.53;;;3.70;;
70675;SDS011;59069;52.242;20.900;2023-06-26T10:41:39;6.80;;;3.77;;
70675;SDS011;59069;52.242;20.900;2023-06-26T10:44:09;6.80;;;3.65;;
70675;SDS011;59069;52.242;20.900;2023-06-26T10:49:14;6.55;;;3.17;;
70675;SDS011;59069;52.242;20.900;2023-06-26T10:51:45;7.27;;;4.07;;
70675;SDS011;59069;52.242;20.900;2023-06-26T10:54:14;6.30;;;2.90;;
70675;SDS011;59069;52.242;20.900;2023-06-26T10:56:50;8.30;;;4.00;;
70675;SDS011;59069;52.242;20.900;2023-06-26T11:01:46;7.75;;;3.90;;
70675;SDS011;59069;52.242;20.900;2023-06-26T11:04:19;8.27;;;3.78;;
70675;SDS011;59069;52.242;20.900;2023-06-26T11:07:14;9.68;;;3.63;;
70675;SDS011;59069;52.242;20.900;2023-06-26T11:12:36;7.50;;;3.63;;
70675;SDS011;59069;52.242;20.900;2023-06-26T11:15:10;7.50;;;3.60;;
70675;SDS011;59069;52.242;20.900;2023-06-26T11:17:38;8.10;;;3.67;;
70675;SDS011;59069;52.242;20.900;2023-06-26T11:20:08;10.85;;;4.13;;
70675;SDS011;59069;52.242;20.900;2023-06-26T11:22:35;7.05;;;3.55;;
70675;SDS011;59069;52.242;20.900;2023-06-26T11:25:02;8.80;;;3.47;;
70675;SDS011;59069;52.242;20.900;2023-06-26T11:27:32;7.78;;;3.47;;
70675;SDS011;59069;52.242;20.900;2023-06-26T11:30:03;9.48;;;3.20;;
70675;SDS011;59069;52.242;20.900;2023-06-26T11:32:33;6.75;;;3.40;;
70675;SDS011;59069;52.242;20.900;2023-06-26T11:34:59;7.35;;;3.53;;
70675;SDS011;59069;52.242;20.900;2023-06-26T11:37:25;7.07;;;3.17;;
70675;SDS011;59069;52.242;20.900;2023-06-26T11:39:50;7.35;;;3.55;;
70675;SDS011;59069;52.242;20.900;2023-06-26T11:42:17;6.50;;;3.23;;
70675;SDS011;59069;52.242;20.900;2023-06-26T11:44:43;8.38;;;3.38;;
70675;SDS011;59069;52.242;20.900;2023-06-26T11:47:15;6.90;;;3.17;;
70675;SDS011;59069;52.242;20.900;2023-06-26T11:49:42;8.05;;;4.95;;
70675;SDS011;59069;52.242;20.900;2023-06-26T11:52:09;8.00;;;3.65;;
70675;SDS011;59069;52.242;20.900;2023-06-26T11:54:34;7.03;;;3.37;;
70675;SDS011;59069;52.242;20.900;2023-06-26T11:56:59;6.63;;;3.70;;
70675;SDS011;59069;52.242;20.900;2023-06-26T12:02:13;7.90;;;3.05;;
70675;SDS011;59069;52.242;20.900;2023-06-26T12:04:43;7.00;;;3.10;;
70675;SDS011;59069;52.242;20.900;2023-06-26T12:07:09;9.30;;;3.53;;
70675;SDS011;59069;52.242;20.900;2023-06-26T12:09:42;8.32;;;3.50;;
70675;SDS011;59069;52.242;20.900;2023-06-26T12:12:09;7.20;;;3.35;;
70675;SDS011;59069;52.242;20.900;2023-06-26T12:14:35;6.68;;;3.50;;
70675;SDS011;59069;52.242;20.900;2023-06-26T12:17:05;7.87;;;3.17;;
70675;SDS011;59069;52.242;20.900;2023-06-26T12:19:36;8.65;;;3.60;;
70675;SDS011;59069;52.242;20.900;2023-06-26T12:22:05;6.30;;;2.85;;
70675;SDS011;59069;52.242;20.900;2023-06-26T12:24:32;7.65;;;3.20;;
70675;SDS011;59069;52.242;20.900;2023-06-26T12:26:57;7.70;;;3.40;;
70675;SDS011;59069;52.242;20.900;2023-06-26T12:29:29;7.07;;;3.40;;
70675;SDS011;59069;52.242;20.900;2023-06-26T12:31:57;8.48;;;3.30;;
70675;SDS011;59069;52.242;20.900;2023-06-26T12:34:32;7.30;;;3.80;;
70675;SDS011;59069;52.242;20.900;2023-06-26T12:37:08;6.82;;;3.33;;
70675;SDS011;59069;52.242;20.900;2023-06-26T12:39:45;6.70;;;3.28;;
70675;SDS011;59069;52.242;20.900;2023-06-26T12:42:18;8.25;;;3.47;;
70675;SDS011;59069;52.242;20.900;2023-06-26T12:44:44;7.43;;;3.80;;
70675;SDS011;59069;52.242;20.900;2023-06-26T12:47:10;7.85;;;3.55;;
70675;SDS011;59069;52.242;20.900;2023-06-26T12:49:42;8.48;;;3.65;;
70675;SDS011;59069;52.242;20.900;2023-06-26T12:52:13;6.43;;;3.10;;
70675;SDS011;59069;52.242;20.900;2023-06-26T12:54:41;6.40;;;3.00;;
70675;SDS011;59069;52.242;20.900;2023-06-26T12:57:07;7.23;;;3.00;;
70675;SDS011;59069;52.242;20.900;2023-06-26T12:59:33;7.18;;;3.90;;
70675;SDS011;59069;52.242;20.900;2023-06-26T13:02:00;10.65;;;3.30;;
70675;SDS011;59069;52.242;20.900;2023-06-26T13:04:26;6.93;;;3.33;;
70675;SDS011;59069;52.242;20.900;2023-06-26T13:06:51;6.72;;;3.33;;
70675;SDS011;59069;52.242;20.900;2023-06-26T13:09:19;7.40;;;3.67;;
70675;SDS011;59069;52.242;20.900;2023-06-26T13:11:45;6.20;;;3.53;;
70675;SDS011;59069;52.242;20.900;2023-06-26T13:14:11;7.15;;;3.53;;
70675;SDS011;59069;52.242;20.900;2023-06-26T13:16:36;9.20;;;4.20;;
70675;SDS011;59069;52.242;20.900;2023-06-26T13:19:02;6.60;;;3.70;;
70675;SDS011;59069;52.242;20.900;2023-06-26T13:21:28;6.90;;;3.87;;
70675;SDS011;59069;52.242;20.900;2023-06-26T13:23:53;6.65;;;3.50;;
70675;SDS011;59069;52.242;20.900;2023-06-26T13:26:19;6.70;;;3.72;;
70675;SDS011;59069;52.242;20.900;2023-06-26T13:28:46;6.40;;;3.63;;
70675;SDS011;59069;52.242;20.900;2023-06-26T13:31:12;6.73;;;3.70;;
70675;SDS011;59069;52.242;20.900;2023-06-26T13:33:38;7.73;;;3.40;;
70675;SDS011;59069;52.242;20.900;2023-06-26T13:36:03;7.83;;;3.60;;
70675;SDS011;59069;52.242;20.900;2023-06-26T13:38:30;6.25;;;3.40;;
70675;SDS011;59069;52.242;20.900;2023-06-26T13:40:57;6.93;;;3.80;;
70675;SDS011;59069;52.242;20.900;2023-06-26T13:43:24;7.57;;;4.03;;
70675;SDS011;59069;52.242;20.900;2023-06-26T13:45:49;6.93;;;3.33;;
70675;SDS011;59069;52.242;20.900;2023-06-26T13:48:15;7.10;;;3.53;;
70675;SDS011;59069;52.242;20.900;2023-06-26T13:50:43;7.20;;;3.50;;
70675;SDS011;59069;52.242;20.900;2023-06-26T13:53:44;6.38;;;3.50;;
70675;SDS011;59069;52.242;20.900;2023-06-26T13:56:09;7.13;;;3.70;;
70675;SDS011;59069;52.242;20.900;2023-06-26T13:58:35;9.87;;;3.30;;
70675;SDS011;59069;52.242;20.900;2023-06-26T14:01:01;7.55;;;3.75;;
70675;SDS011;59069;52.242;20.900;2023-06-26T14:03:26;7.63;;;3.72;;
70675;SDS011;59069;52.242;20.900;2023-06-26T14:05:53;10.10;;;3.93;;
70675;SDS011;59069;52.242;20.900;2023-06-26T14:08:18;7.82;;;3.80;;
70675;SDS011;59069;52.242;20.900;2023-06-26T14:10:44;7.33;;;3.90;;
70675;SDS011;59069;52.242;20.900;2023-06-26T14:13:09;6.63;;;3.40;;
70675;SDS011;59069;52.242;20.900;2023-06-26T14:15:36;7.00;;;3.45;;
70675;SDS011;59069;52.242;20.900;2023-06-26T14:18:04;7.32;;;3.60;;
70675;SDS011;59069;52.242;20.900;2023-06-26T14:20:29;7.57;;;3.57;;
70675;SDS011;59069;52.242;20.900;2023-06-26T14:22:57;6.82;;;3.70;;
70675;SDS011;59069;52.242;20.900;2023-06-26T14:25:23;8.20;;;3.50;;
70675;SDS011;59069;52.242;20.900;2023-06-26T14:27:48;7.10;;;3.50;;
70675;SDS011;59069;52.242;20.900;2023-06-26T14:30:14;7.47;;;3.35;;
70675;SDS011;59069;52.242;20.900;2023-06-26T14:32:39;6.60;;;3.53;;
70675;SDS011;59069;52.242;20.900;2023-06-26T14:35:05;6.53;;;3.45;;
70675;SDS011;59069;52.242;20.900;2023-06-26T14:37:31;9.60;;;3.50;;
70675;SDS011;59069;52.242;20.900;2023-06-26T14:39:57;9.83;;;3.70;;
70675;SDS011;59069;52.242;20.900;2023-06-26T14:42:23;7.65;;;3.70;;
70675;SDS011;59069;52.242;20.900;2023-06-26T14:44:49;6.50;;;3.43;;